Abernant, Alabama
Current Conditions -  °F | °C
As of 4:51 AM on Sunday 26 Oct 2014 (Local Time) from KTCL Reporting Station
Broken Clouds Broken Clouds  
Wind Chill: 55°   Ceiling: 200
Heat Index: 55°   Visibility: 10mi
Dew Point: 54°   Wind: 0mph
Humidity: 94%   Direction: NA
Pressure: 30.03"   Gusts: NA
Location:  33.29°N, 87.2°W
Report Text: KTCL 260951Z AUTO 00000KT 10SM BKN002 13/12 A3003 RMK AO2
Loading
Personal Weather Stations






























Interactive Weather Map New forecast layout! Learn more

10-Day Weather Forecast

Advertisements
Track Severe Weather on mobile